Axtell, Utah
Current Conditions -  °F | °C
As of 12:35 PM on Thursday 27 Nov 2014 (Local Time) from KDTA Reporting Station
Clear Clear  
Wind Chill: 50°   Ceiling: Unl
Heat Index: 50°   Visibility: 10mi
Dew Point: 25°   Wind: 5mph
Humidity: 38%   Direction: 70°ENE
Pressure: 30.3"   Gusts: NA
Location:  39.06°N, 111.82°W
Report Text: KDTA 271935Z AUTO 07004KT 10SM CLR 10/M04 A3030 RMK AO1 T01011038
Loading
Personal Weather Stations






























Interactive Weather Map New forecast layout! Learn more

10-Day Weather Forecast

Advertisements
Track Severe Weather on mobile